createdAt,value
2022-12-18T00:02:59.002Z,88.91
2022-12-18T00:06:03.262Z,88.77
2022-12-18T00:09:06.035Z,88.88
2022-12-18T00:15:18.457Z,89.07
2022-12-18T00:18:21.454Z,87.99
2022-12-18T00:21:24.127Z,87.79
2022-12-18T00:24:27.574Z,88.12
2022-12-18T00:27:30.327Z,88.43
2022-12-18T00:30:33.383Z,88.86
2022-12-18T00:33:37.722Z,89.14
2022-12-18T00:36:42.191Z,89.26
2022-12-18T00:39:44.917Z,89.20
2022-12-18T00:42:56.809Z,88.74
2022-12-18T00:45:59.598Z,88.50
2022-12-18T00:49:02.717Z,87.60
2022-12-18T00:52:05.704Z,87.48
2022-12-18T00:55:09.243Z,87.32
2022-12-18T00:58:13.152Z,88.39
2022-12-18T01:01:16.907Z,88.22
2022-12-18T01:04:19.725Z,89.86
2022-12-18T01:07:22.834Z,91.08
2022-12-18T01:10:26.423Z,90.15
2022-12-18T01:13:33.524Z,89.81
2022-12-18T01:16:36.309Z,89.79
2022-12-18T01:19:40.775Z,89.58
2022-12-18T01:22:46.146Z,89.35
2022-12-18T01:25:49.253Z,89.48
2022-12-18T01:28:52.363Z,89.41
2022-12-18T01:31:57.434Z,90.61
2022-12-18T01:35:00.230Z,89.72
2022-12-18T01:38:03.583Z,89.40
2022-12-18T01:41:06.297Z,88.89
2022-12-18T01:44:49.513Z,89.55
2022-12-18T01:47:55.927Z,89.50
2022-12-18T01:50:58.983Z,89.04
2022-12-18T01:54:01.693Z,88.94
2022-12-18T01:57:06.038Z,87.96
2022-12-18T02:00:22.593Z,86.36
2022-12-18T02:03:27.055Z,87.70
2022-12-18T02:06:42.780Z,89.09
2022-12-18T02:09:56.182Z,90.13
2022-12-18T02:13:15.541Z,89.84
2022-12-18T02:16:30.244Z,87.80
2022-12-18T02:19:48.285Z,86.70
2022-12-18T02:23:12.623Z,87.28
2022-12-18T02:26:35.848Z,88.02
2022-12-18T02:29:58.824Z,87.17
2022-12-18T02:33:07.586Z,88.93
2022-12-18T02:36:12.155Z,91.78
2022-12-18T02:39:17.146Z,92.96
2022-12-18T02:42:21.132Z,92.43
2022-12-18T02:45:24.404Z,91.67
2022-12-18T02:48:36.345Z,91.17
2022-12-18T02:52:10.378Z,91.73
2022-12-18T02:55:38.288Z,91.13
2022-12-18T02:58:50.873Z,90.00
2022-12-18T03:02:04.608Z,89.42
2022-12-18T03:05:20.594Z,88.57
2022-12-18T03:08:29.301Z,89.22
2022-12-18T03:11:59.361Z,92.15
2022-12-18T03:15:18.700Z,91.26
2022-12-18T03:18:31.348Z,90.14
2022-12-18T03:21:41.901Z,89.57
2022-12-18T03:24:47.585Z,88.77
2022-12-18T03:27:57.617Z,89.39
2022-12-18T03:31:02.993Z,89.88
2022-12-18T03:34:15.681Z,89.41
2022-12-18T03:37:19.109Z,88.33
2022-12-18T03:40:28.363Z,87.70
2022-12-18T03:43:47.588Z,87.86
2022-12-18T03:46:53.575Z,88.72
2022-12-18T03:50:17.536Z,88.08
2022-12-18T03:53:42.948Z,87.87
2022-12-18T03:56:52.864Z,87.21
2022-12-18T04:00:11.850Z,88.25
2022-12-18T04:03:22.571Z,87.27
2022-12-18T04:06:31.061Z,86.81
2022-12-18T04:09:35.659Z,87.31
2022-12-18T04:12:39.967Z,89.65
2022-12-18T04:15:45.753Z,90.03
2022-12-18T04:18:49.407Z,89.93
2022-12-18T04:21:52.195Z,89.83
2022-12-18T04:24:55.386Z,88.93
2022-12-18T04:27:58.429Z,90.39
2022-12-18T04:31:01.443Z,90.75
2022-12-18T04:34:04.798Z,90.34
2022-12-18T04:37:09.767Z,89.66
2022-12-18T04:40:13.080Z,89.23
2022-12-18T04:43:16.514Z,89.09
2022-12-18T04:46:19.342Z,89.25
2022-12-18T04:49:22.470Z,88.70
2022-12-18T04:52:25.246Z,88.79
2022-12-18T04:55:28.660Z,87.36
2022-12-18T04:58:31.316Z,87.07
2022-12-18T05:01:35.171Z,86.26
2022-12-18T05:04:40.456Z,87.11
2022-12-18T05:07:43.602Z,87.41
2022-12-18T05:10:46.295Z,86.71
2022-12-18T05:13:49.395Z,86.53
2022-12-18T05:16:53.965Z,87.01
2022-12-18T05:19:59.832Z,87.36
2022-12-18T05:23:02.575Z,87.72
2022-12-18T05:26:07.552Z,87.20
2022-12-18T05:29:13.347Z,85.50
2022-12-18T05:32:17.164Z,86.26
2022-12-18T05:35:20.025Z,86.66
2022-12-18T05:38:25.134Z,86.37
2022-12-18T05:41:28.893Z,86.26
2022-12-18T05:44:31.915Z,86.63
2022-12-18T05:47:34.711Z,87.17
2022-12-18T05:50:39.598Z,87.05
2022-12-18T05:53:43.596Z,87.42
2022-12-18T05:56:48.806Z,88.14
2022-12-18T05:59:51.926Z,88.41
2022-12-18T06:02:55.357Z,88.37
2022-12-18T06:05:58.445Z,87.98
2022-12-18T06:09:02.524Z,85.98
2022-12-18T06:12:06.053Z,88.30
2022-12-18T06:15:09.401Z,88.25
2022-12-18T06:18:12.533Z,87.57
2022-12-18T06:21:15.271Z,86.94
2022-12-18T06:24:18.423Z,86.42
2022-12-18T06:27:21.601Z,87.45
2022-12-18T06:30:24.654Z,87.24
2022-12-18T06:33:29.207Z,87.48
2022-12-18T06:36:32.649Z,86.92
2022-12-18T06:39:35.396Z,88.04
2022-12-18T06:42:38.489Z,89.05
2022-12-18T06:45:41.394Z,88.79
2022-12-18T06:48:47.448Z,88.71
2022-12-18T06:51:50.162Z,88.74
2022-12-18T06:54:53.200Z,89.10
2022-12-18T06:57:55.870Z,89.20
2022-12-18T07:01:03.160Z,89.28
2022-12-18T07:04:06.026Z,89.15
2022-12-18T07:07:09.113Z,89.83
2022-12-18T07:10:12.037Z,90.06
2022-12-18T07:13:15.111Z,90.31
2022-12-18T07:16:25.352Z,90.17
2022-12-18T07:19:28.925Z,92.62
2022-12-18T07:22:32.780Z,90.67
2022-12-18T07:25:37.226Z,89.91
2022-12-18T07:28:41.506Z,90.23
2022-12-18T07:31:44.853Z,91.15
2022-12-18T07:34:47.577Z,90.33
2022-12-18T07:37:50.486Z,90.45
2022-12-18T07:40:53.242Z,90.22
2022-12-18T07:43:56.288Z,90.15
2022-12-18T07:46:59.064Z,90.13
2022-12-18T07:50:02.036Z,89.74
2022-12-18T07:53:05.925Z,88.99
2022-12-18T07:56:27.070Z,89.61
2022-12-18T07:59:30.723Z,89.90
2022-12-18T08:02:33.983Z,90.06
2022-12-18T08:05:37.774Z,90.12
2022-12-18T08:08:42.572Z,90.19
2022-12-18T08:11:45.743Z,89.69
2022-12-18T08:14:48.482Z,89.50
2022-12-18T08:17:51.531Z,88.93
2022-12-18T08:20:54.268Z,88.85
2022-12-18T08:24:00.260Z,89.10
2022-12-18T08:30:19.219Z,89.39
2022-12-18T08:33:22.073Z,88.90
2022-12-18T08:36:25.763Z,87.63
2022-12-18T08:39:29.733Z,87.90
2022-12-18T08:42:52.960Z,84.46
2022-12-18T08:45:55.777Z,85.06
2022-12-18T08:48:59.224Z,84.99
2022-12-18T08:52:03.948Z,83.82
2022-12-18T08:55:07.806Z,79.46
2022-12-18T08:58:10.570Z,82.70
2022-12-18T09:01:14.897Z,76.21
2022-12-18T09:04:18.024Z,80.17
2022-12-18T09:07:21.013Z,77.31
2022-12-18T09:10:24.057Z,73.79
2022-12-18T09:13:27.480Z,74.15
2022-12-18T09:16:32.519Z,73.29
2022-12-18T09:19:36.027Z,71.08
2022-12-18T09:22:38.725Z,66.45
2022-12-18T09:25:41.986Z,63.86
2022-12-18T09:28:45.016Z,65.63
2022-12-18T09:31:48.364Z,60.23
2022-12-18T09:34:50.984Z,62.80
2022-12-18T09:37:54.567Z,63.18
2022-12-18T09:41:02.554Z,61.81
2022-12-18T09:44:25.837Z,58.71
2022-12-18T09:47:39.082Z,58.12
2022-12-18T09:50:42.371Z,55.12
2022-12-18T09:53:51.328Z,61.73
2022-12-18T09:56:54.507Z,60.74
2022-12-18T10:00:06.408Z,57.45
2022-12-18T10:03:16.156Z,55.38
2022-12-18T10:06:23.657Z,54.68
2022-12-18T10:09:42.394Z,52.92
2022-12-18T10:13:07.517Z,53.53
2022-12-18T10:16:17.416Z,56.95
2022-12-18T10:19:37.575Z,51.89
2022-12-18T10:22:46.413Z,54.25
2022-12-18T10:26:07.508Z,55.37
2022-12-18T10:29:15.846Z,50.20
2022-12-18T10:32:28.979Z,49.91
2022-12-18T10:35:31.758Z,49.02
2022-12-18T10:38:35.426Z,48.39
2022-12-18T10:41:38.080Z,49.17
2022-12-18T10:44:41.852Z,51.11
2022-12-18T10:47:49.752Z,48.22
2022-12-18T10:54:18.544Z,46.64
2022-12-18T10:57:27.543Z,47.01
2022-12-18T11:00:31.628Z,47.64
2022-12-18T11:04:01.764Z,46.19
2022-12-18T11:07:08.003Z,45.27
2022-12-18T11:10:12.573Z,45.06
2022-12-18T11:13:24.405Z,47.13
2022-12-18T11:16:30.198Z,43.72
2022-12-18T11:19:42.053Z,46.70
2022-12-18T11:22:59.631Z,46.13
2022-12-18T11:26:05.216Z,44.70
2022-12-18T11:29:18.239Z,45.36
2022-12-18T11:32:30.899Z,46.35
2022-12-18T11:35:48.922Z,45.26
2022-12-18T11:38:55.794Z,43.46
2022-12-18T11:42:14.248Z,43.84
2022-12-18T11:52:29.251Z,44.96
2022-12-18T11:55:41.352Z,44.96
2022-12-18T11:58:48.994Z,44.16
2022-12-18T12:01:57.295Z,45.90
2022-12-18T12:05:23.760Z,44.29
2022-12-18T12:09:05.293Z,46.38
2022-12-18T12:12:14.199Z,45.88
2022-12-18T12:15:55.753Z,46.12
2022-12-18T12:19:19.231Z,44.87
2022-12-18T12:22:27.294Z,45.31
2022-12-18T12:25:41.922Z,45.25
2022-12-18T12:28:59.901Z,46.46
2022-12-18T12:32:13.537Z,47.05
2022-12-18T12:39:01.031Z,45.03
2022-12-18T12:42:35.191Z,45.03
2022-12-18T12:45:49.500Z,46.88
2022-12-18T12:48:59.563Z,47.34
2022-12-18T12:52:15.211Z,46.78
2022-12-18T12:55:22.299Z,46.97
2022-12-18T12:58:50.852Z,48.58
2022-12-18T13:02:18.296Z,47.95
2022-12-18T13:05:45.360Z,47.49
2022-12-18T13:09:00.961Z,48.38
2022-12-18T13:12:24.527Z,48.45
2022-12-18T13:15:42.741Z,48.56
2022-12-18T13:18:55.532Z,49.15
2022-12-18T13:21:58.518Z,48.43
2022-12-18T13:25:01.699Z,48.43
2022-12-18T13:28:11.434Z,50.00
2022-12-18T13:31:35.335Z,51.14
2022-12-18T13:34:38.530Z,53.50
2022-12-18T13:37:45.376Z,52.48
2022-12-18T13:40:48.337Z,57.46
2022-12-18T13:44:11.126Z,58.64
2022-12-18T13:47:36.307Z,60.01
2022-12-18T13:50:40.344Z,63.82
2022-12-18T13:53:52.204Z,61.96
2022-12-18T13:56:55.137Z,65.07
2022-12-18T13:59:59.261Z,66.99
2022-12-18T14:03:02.539Z,67.33
2022-12-18T14:06:10.079Z,65.21
2022-12-18T14:09:36.684Z,66.15
2022-12-18T14:13:00.668Z,68.56
2022-12-18T14:16:08.640Z,68.34
2022-12-18T14:19:18.563Z,69.54
2022-12-18T14:22:28.920Z,72.15
2022-12-18T14:25:32.254Z,72.65
2022-12-18T14:28:45.656Z,73.11
2022-12-18T14:32:18.933Z,73.32
2022-12-18T14:35:22.031Z,74.04
2022-12-18T14:38:49.550Z,75.05
2022-12-18T14:41:53.851Z,75.33
2022-12-18T14:45:40.915Z,75.41
2022-12-18T14:48:48.830Z,75.21
2022-12-18T14:51:57.131Z,76.03
2022-12-18T14:55:00.278Z,76.47
2022-12-18T14:58:04.314Z,76.92
2022-12-18T15:01:08.629Z,76.89
2022-12-18T15:04:30.888Z,76.35
2022-12-18T15:07:50.435Z,76.87
2022-12-18T15:10:54.268Z,77.20
2022-12-18T15:14:00.784Z,78.43
2022-12-18T15:17:26.785Z,78.72
2022-12-18T15:20:35.876Z,78.88
2022-12-18T15:23:52.933Z,79.36
2022-12-18T15:26:56.786Z,78.96
2022-12-18T15:30:11.462Z,79.20
2022-12-18T15:33:26.395Z,79.72
2022-12-18T15:36:37.795Z,80.41
2022-12-18T15:39:41.456Z,80.14
2022-12-18T15:43:04.777Z,80.23
2022-12-18T15:46:13.384Z,80.05
2022-12-18T15:49:19.120Z,81.28
2022-12-18T15:52:27.534Z,81.44
2022-12-18T15:55:55.277Z,81.71
2022-12-18T15:59:02.464Z,82.20
2022-12-18T16:02:18.118Z,82.52
2022-12-18T16:05:26.317Z,81.72
2022-12-18T16:08:33.741Z,83.61
2022-12-18T16:11:44.669Z,84.69
2022-12-18T16:14:52.671Z,82.70
2022-12-18T16:17:57.084Z,81.92
2022-12-18T16:21:01.009Z,81.77
2022-12-18T16:24:05.951Z,81.02
2022-12-18T16:27:09.925Z,81.16
2022-12-18T16:30:20.046Z,81.20
2022-12-18T16:33:24.271Z,80.72
2022-12-18T16:36:31.416Z,81.24
2022-12-18T16:39:36.799Z,81.78
2022-12-18T16:42:42.380Z,83.56
2022-12-18T16:45:46.440Z,83.22
2022-12-18T16:48:50.905Z,84.50
2022-12-18T16:51:54.424Z,86.28
2022-12-18T16:54:58.697Z,86.28
2022-12-18T16:58:02.275Z,86.09
2022-12-18T17:01:10.758Z,84.36
2022-12-18T17:04:14.750Z,84.58
2022-12-18T17:07:18.585Z,84.15
2022-12-18T17:10:22.654Z,83.95
2022-12-18T17:13:29.224Z,83.82
2022-12-18T17:16:34.478Z,83.91
2022-12-18T17:19:39.473Z,84.21
2022-12-18T17:22:44.312Z,84.02
2022-12-18T17:25:50.097Z,84.76
2022-12-18T17:28:53.818Z,84.80
2022-12-18T17:32:00.485Z,84.62
2022-12-18T17:35:07.369Z,84.59
2022-12-18T17:38:25.905Z,84.70
2022-12-18T17:41:31.449Z,84.24
2022-12-18T17:44:35.669Z,85.22
2022-12-18T17:47:39.825Z,85.88
2022-12-18T17:50:48.059Z,85.10
2022-12-18T17:53:53.991Z,85.06
2022-12-18T17:56:57.416Z,85.30
2022-12-18T18:00:01.462Z,85.70
2022-12-18T18:03:05.584Z,85.59
2022-12-18T18:06:10.734Z,86.59
2022-12-18T18:09:17.596Z,85.63
2022-12-18T18:12:40.677Z,85.04
2022-12-18T18:15:46.372Z,84.45
2022-12-18T18:18:50.901Z,84.05
2022-12-18T18:21:54.845Z,84.75
2022-12-18T18:24:59.227Z,85.66
2022-12-18T18:28:11.737Z,85.79
2022-12-18T18:31:15.924Z,85.07
2022-12-18T18:34:23.352Z,84.85
2022-12-18T18:37:27.929Z,84.89
2022-12-18T18:40:31.532Z,84.79
2022-12-18T18:43:36.211Z,84.55
2022-12-18T18:46:41.229Z,84.62
2022-12-18T18:49:46.225Z,84.41
2022-12-18T18:52:49.876Z,83.28
2022-12-18T18:56:17.460Z,84.06
2022-12-18T18:59:21.514Z,84.01
2022-12-18T19:02:36.003Z,84.05
2022-12-18T19:05:44.471Z,84.46
2022-12-18T19:09:02.569Z,85.35
2022-12-18T19:12:25.080Z,84.99
2022-12-18T19:15:29.212Z,84.81
2022-12-18T19:18:33.931Z,84.83
2022-12-18T19:21:38.949Z,84.30
2022-12-18T19:24:42.584Z,85.13
2022-12-18T19:27:48.186Z,85.50
2022-12-18T19:30:58.614Z,84.92
2022-12-18T19:34:03.587Z,85.10
2022-12-18T19:37:07.048Z,86.77
2022-12-18T19:40:12.654Z,86.84
2022-12-18T19:43:16.587Z,86.31
2022-12-18T19:46:22.826Z,85.45
2022-12-18T19:49:26.617Z,85.74
2022-12-18T19:52:30.406Z,85.63
2022-12-18T19:55:41.003Z,85.06
2022-12-18T19:58:47.774Z,83.83
2022-12-18T20:01:51.950Z,84.38
2022-12-18T20:04:55.779Z,84.85
2022-12-18T20:08:00.921Z,86.08
2022-12-18T20:11:05.410Z,85.89
2022-12-18T20:14:10.269Z,86.55
2022-12-18T20:17:15.097Z,87.20
2022-12-18T20:20:19.621Z,86.08
2022-12-18T20:23:24.928Z,85.42
2022-12-18T20:26:28.395Z,85.80
2022-12-18T20:29:32.507Z,85.28
2022-12-18T20:32:37.226Z,85.04
2022-12-18T20:35:41.880Z,84.91
2022-12-18T20:38:46.378Z,84.89
2022-12-18T20:41:51.334Z,85.69
2022-12-18T20:44:54.297Z,86.45
2022-12-18T20:47:59.674Z,87.20
2022-12-18T20:51:06.098Z,86.82
2022-12-18T20:54:11.922Z,86.71
2022-12-18T20:57:14.942Z,86.70
2022-12-18T21:00:21.267Z,86.62
2022-12-18T21:03:24.347Z,86.02
2022-12-18T21:06:30.072Z,85.87
2022-12-18T21:09:37.779Z,85.96
2022-12-18T21:12:58.755Z,85.36
2022-12-18T21:16:06.577Z,86.53
2022-12-18T21:19:13.145Z,86.94
2022-12-18T21:22:16.163Z,86.62
2022-12-18T21:25:19.408Z,86.67
2022-12-18T21:28:22.240Z,85.27
2022-12-18T21:31:29.192Z,85.83
2022-12-18T21:34:33.347Z,85.91
2022-12-18T21:37:36.426Z,85.79
2022-12-18T21:40:39.945Z,85.69
2022-12-18T21:44:01.820Z,85.48
2022-12-18T21:47:16.066Z,85.16
2022-12-18T21:50:25.816Z,85.69
2022-12-18T21:53:28.591Z,85.59
2022-12-18T21:56:59.133Z,85.38
2022-12-18T22:00:02.338Z,85.90
2022-12-18T22:03:18.277Z,85.41
2022-12-18T22:06:22.597Z,84.77
2022-12-18T22:09:25.608Z,84.87
2022-12-18T22:12:46.594Z,84.66
2022-12-18T22:15:49.255Z,84.35
2022-12-18T22:18:52.329Z,84.65
2022-12-18T22:21:55.041Z,83.58
2022-12-18T22:24:58.167Z,84.06
2022-12-18T22:28:19.428Z,84.21
2022-12-18T22:31:22.616Z,84.44
2022-12-18T22:34:25.430Z,84.40
2022-12-18T22:37:28.447Z,84.38
2022-12-18T22:40:31.146Z,84.11
2022-12-18T22:43:34.215Z,83.94
2022-12-18T22:46:42.447Z,84.17
2022-12-18T22:49:45.509Z,83.06
2022-12-18T22:52:48.229Z,84.11
2022-12-18T22:55:51.205Z,84.47
2022-12-18T22:58:54.128Z,84.81
2022-12-18T23:01:59.601Z,84.92
2022-12-18T23:05:02.438Z,85.03
2022-12-18T23:08:05.642Z,84.91
2022-12-18T23:11:09.022Z,84.95
2022-12-18T23:14:13.005Z,84.10
2022-12-18T23:17:15.656Z,84.41
2022-12-18T23:20:18.782Z,83.92
2022-12-18T23:23:21.415Z,84.06
2022-12-18T23:26:25.752Z,83.08
2022-12-18T23:29:28.422Z,82.55
2022-12-18T23:32:31.468Z,82.89
2022-12-18T23:35:37.911Z,84.39
2022-12-18T23:38:41.578Z,86.32
2022-12-18T23:41:44.223Z,85.57
2022-12-18T23:44:47.176Z,85.86
2022-12-18T23:47:51.341Z,86.68
2022-12-18T23:50:54.466Z,85.95
2022-12-18T23:53:59.729Z,85.87
2022-12-18T23:57:02.896Z,85.14
